Vreite — PC7692 — position and weather

sailwx.info

Track history (hours):
 
Tides and Currents Weather Stations Pressure Air Temp Water Temp Dewpoint Dewpoint Depression Visibility Wind Speed Wind Dir Waves Ship Positions

Vreite

Last reported at 2018-Jul-23 11:30 UTC. Time now 2018-Jul-23 11:53 UTC.
Position N 53°16' E 005°11'.

Length 13 m.

Type: Pleasure craft. MMSI: 244100689.

Date/timePositionNaut miles runAvg speedWind from/ knotsBaromVisibWave heightAir tempDewpointWater temp
2018-Jul-23 11:30N 53°16' E 005°11'2 4.8
2018-Jul-23 11:00N 53°14' E 005°13'2 3.8
2018-Jul-23 10:29N 53°14' E 005°17'2 4.3
2018-Jul-23 10:00N 53°12' E 005°19'3 5.2
2018-Jul-23 09:30N 53°11' E 005°22'2 0.1
2018-Jul-22 16:03N 53°10' E 005°25'0 0.0
2018-Jul-22 15:57N 53°10' E 005°25'3 2.7
2018-Jul-22 15:00N 53°08' E 005°23'2 3.8
2018-Jul-22 14:30N 53°06' E 005°22'2 4.8
2018-Jul-22 14:00N 53°04' E 005°20'1 2.0
2018-Jul-22 13:30N 53°03' E 005°21'3 5.1
2018-Jul-22 13:00N 53°01' E 005°22'2 3.1
2018-Jul-22 12:30N 52°60' E 005°20'3 5.7
2018-Jul-22 12:00N 52°57' E 005°20'3 5.6
2018-Jul-22 11:30N 52°54' E 005°19'3 5.6
2018-Jul-22 11:00N 52°51' E 005°19'3 5.2
2018-Jul-22 10:31N 52°49' E 005°19'3 5.2
2018-Jul-22 10:00N 52°46' E 005°21'1 2.8
2018-Jul-22 09:31N 52°45' E 005°21'2 3.9
2018-Jul-22 09:01N 52°43' E 005°19'1 2.1
2018-Jul-22 08:29N 52°42' E 005°18'0 0.0
2018-Jul-20 13:22N 52°42' E 005°18'0 0.3
2018-Jul-20 13:00N 52°42' E 005°18'1 2.9
2018-Jul-20 12:30N 52°44' E 005°19'1 2.9
2018-Jul-20 12:00N 52°45' E 005°18'2 3.9
2018-Jul-20 11:30N 52°47' E 005°18'2 4.4
2018-Jul-20 11:00N 52°49' E 005°17'2 4.5
2018-Jul-20 10:30N 52°51' E 005°17'2 3.8
2018-Jul-20 10:00N 52°52' E 005°19'1 2.5
2018-Jul-20 09:25N 52°53' E 005°21'1 1.3
2018-Jul-20 09:00N 52°53' E 005°22'1 2.4
2018-Jul-20 08:30N 52°53' E 005°24'  
2018-Jul-16 11:29N 52°53' E 005°24'1 1.1
2018-Jul-16 11:00N 52°53' E 005°23'1 1.9
2018-Jul-16 10:31N 52°53' E 005°22'2 3.4
2018-Jul-16 10:01N 52°54' E 005°22'2 4.8
2018-Jul-16 09:30N 52°57' E 005°23'1 0.0
2018-Jul-15 16:01N 52°57' E 005°24'1 2.0
2018-Jul-15 15:30N 52°57' E 005°23'4 7.0
2018-Jul-15 15:00N 52°56' E 005°17'3 5.9
2018-Jul-15 14:30N 52°55' E 005°13'0 0.8
2018-Jul-15 14:00N 52°54' E 005°12'2 4.6
2018-Jul-15 13:30N 52°54' E 005°08'0 0.0
2018-Jul-15 12:57N 52°54' E 005°08'1 2.3
2018-Jul-15 12:30N 52°54' E 005°07'2 4.3
2018-Jul-15 12:00N 52°55' E 005°03'1 2.3
2018-Jul-15 11:29N 52°56' E 005°02'1 1.1
2018-Jul-15 11:00N 52°57' E 005°02'2 4.4
2018-Jul-15 10:30N 52°58' E 004°59'2 3.3
2018-Jul-15 10:00N 52°59' E 004°57'1 2.9
2018-Jul-15 09:30N 52°60' E 004°55'2 3.6
2018-Jul-15 09:00N 52°59' E 004°52'2 4.6
2018-Jul-15 08:30N 53°01' E 004°52'1 2.4
2018-Jul-15 07:59N 53°03' E 004°52'0 0.0
2018-Jul-13 16:43N 53°03' E 004°52'0 0.0
2018-Jul-13 16:28N 53°03' E 004°52'0 0.0
2018-Jul-13 15:58N 53°03' E 004°52'1 1.7
2018-Jul-13 15:30N 53°02' E 004°51'2 4.2
2018-Jul-13 15:00N 52°60' E 004°52'2 3.8
2018-Jul-13 14:30N 52°60' E 004°55'6 5.7
2018-Jul-13 13:30N 52°56' E 005°02'0 0.9
2018-Jul-13 13:00N 52°56' E 005°03'0 0.0
2018-Jul-13 12:30N 52°56' E 005°03'0 0.2
2018-Jul-13 12:00N 52°56' E 005°03'2 4.4
2018-Jul-13 11:31N 52°54' E 005°06'  
Track history (hours):
 
Tides and Currents Weather Stations Pressure Air Temp Water Temp Dewpoint Dewpoint Depression Visibility Wind Speed Wind Dir Waves Ship Positions

Vreite

Last reported at 2018-Jul-23 11:30 UTC. Time now 2018-Jul-23 11:53 UTC.
Position N 53°16' E 005°11'.

Length 13 m.

Type: Pleasure craft. MMSI: 244100689.

Date/timePositionNaut miles runAvg speedWind from/ knotsBaromVisibWave heightAir tempDewpointWater temp
2018-Jul-23 11:30N 53°16' E 005°11'2 4.8
2018-Jul-23 11:00N 53°14' E 005°13'2 3.8
2018-Jul-23 10:29N 53°14' E 005°17'2 4.3
2018-Jul-23 10:00N 53°12' E 005°19'3 5.2
2018-Jul-23 09:30N 53°11' E 005°22'2 0.1
2018-Jul-22 16:03N 53°10' E 005°25'0 0.0
2018-Jul-22 15:57N 53°10' E 005°25'3 2.7
2018-Jul-22 15:00N 53°08' E 005°23'2 3.8
2018-Jul-22 14:30N 53°06' E 005°22'2 4.8
2018-Jul-22 14:00N 53°04' E 005°20'1 2.0
2018-Jul-22 13:30N 53°03' E 005°21'3 5.1
2018-Jul-22 13:00N 53°01' E 005°22'2 3.1
2018-Jul-22 12:30N 52°60' E 005°20'3 5.7
2018-Jul-22 12:00N 52°57' E 005°20'3 5.6
2018-Jul-22 11:30N 52°54' E 005°19'3 5.6
2018-Jul-22 11:00N 52°51' E 005°19'3 5.2
2018-Jul-22 10:31N 52°49' E 005°19'3 5.2
2018-Jul-22 10:00N 52°46' E 005°21'1 2.8
2018-Jul-22 09:31N 52°45' E 005°21'2 3.9
2018-Jul-22 09:01N 52°43' E 005°19'1 2.1
2018-Jul-22 08:29N 52°42' E 005°18'0 0.0
2018-Jul-20 13:22N 52°42' E 005°18'0 0.3
2018-Jul-20 13:00N 52°42' E 005°18'1 2.9
2018-Jul-20 12:30N 52°44' E 005°19'1 2.9
2018-Jul-20 12:00N 52°45' E 005°18'2 3.9
2018-Jul-20 11:30N 52°47' E 005°18'2 4.4
2018-Jul-20 11:00N 52°49' E 005°17'2 4.5
2018-Jul-20 10:30N 52°51' E 005°17'2 3.8
2018-Jul-20 10:00N 52°52' E 005°19'1 2.5
2018-Jul-20 09:25N 52°53' E 005°21'1 1.3
2018-Jul-20 09:00N 52°53' E 005°22'1 2.4
2018-Jul-20 08:30N 52°53' E 005°24'  
2018-Jul-16 11:29N 52°53' E 005°24'1 1.1
2018-Jul-16 11:00N 52°53' E 005°23'1 1.9
2018-Jul-16 10:31N 52°53' E 005°22'2 3.4
2018-Jul-16 10:01N 52°54' E 005°22'2 4.8
2018-Jul-16 09:30N 52°57' E 005°23'1 0.0
2018-Jul-15 16:01N 52°57' E 005°24'1 2.0
2018-Jul-15 15:30N 52°57' E 005°23'4 7.0
2018-Jul-15 15:00N 52°56' E 005°17'3 5.9
2018-Jul-15 14:30N 52°55' E 005°13'0 0.8
2018-Jul-15 14:00N 52°54' E 005°12'2 4.6
2018-Jul-15 13:30N 52°54' E 005°08'0 0.0
2018-Jul-15 12:57N 52°54' E 005°08'1 2.3
2018-Jul-15 12:30N 52°54' E 005°07'2 4.3
2018-Jul-15 12:00N 52°55' E 005°03'1 2.3
2018-Jul-15 11:29N 52°56' E 005°02'1 1.1
2018-Jul-15 11:00N 52°57' E 005°02'2 4.4
2018-Jul-15 10:30N 52°58' E 004°59'2 3.3
2018-Jul-15 10:00N 52°59' E 004°57'1 2.9
2018-Jul-15 09:30N 52°60' E 004°55'2 3.6
2018-Jul-15 09:00N 52°59' E 004°52'2 4.6
2018-Jul-15 08:30N 53°01' E 004°52'1 2.4
2018-Jul-15 07:59N 53°03' E 004°52'0 0.0
2018-Jul-13 16:43N 53°03' E 004°52'0 0.0
2018-Jul-13 16:28N 53°03' E 004°52'0 0.0
2018-Jul-13 15:58N 53°03' E 004°52'1 1.7
2018-Jul-13 15:30N 53°02' E 004°51'2 4.2
2018-Jul-13 15:00N 52°60' E 004°52'2 3.8
2018-Jul-13 14:30N 52°60' E 004°55'6 5.7
2018-Jul-13 13:30N 52°56' E 005°02'0 0.9
2018-Jul-13 13:00N 52°56' E 005°03'0 0.0
2018-Jul-13 12:30N 52°56' E 005°03'0 0.2
2018-Jul-13 12:00N 52°56' E 005°03'2 4.4
2018-Jul-13 11:31N 52°54' E 005°06'  

Dump ship's entire track history